createdAt,value
2023-02-23T00:02:25.651Z,11.03
2023-02-23T00:04:53.750Z,11.04
2023-02-23T00:07:23.480Z,11.05
2023-02-23T00:09:53.107Z,11.07
2023-02-23T00:12:21.301Z,11.08
2023-02-23T00:14:49.360Z,11.08
2023-02-23T00:17:20.172Z,11.07
2023-02-23T00:19:49.702Z,11.08
2023-02-23T00:22:17.795Z,11.07
2023-02-23T00:24:48.212Z,11.07
2023-02-23T00:27:19.037Z,11.06
2023-02-23T00:29:49.753Z,11.05
2023-02-23T00:32:21.803Z,11.05
2023-02-23T00:34:50.604Z,11.06
2023-02-23T00:37:22.117Z,11.02
2023-02-23T00:39:52.307Z,11.03
2023-02-23T00:42:20.346Z,11.03
2023-02-23T00:44:49.569Z,11.02
2023-02-23T00:47:17.624Z,11.00
2023-02-23T00:49:46.223Z,10.98
2023-02-23T00:52:15.634Z,10.97
2023-02-23T00:54:43.656Z,10.97
2023-02-23T00:57:13.596Z,10.92
2023-02-23T00:59:42.514Z,10.94
2023-02-23T01:02:10.628Z,10.93
2023-02-23T01:04:38.680Z,10.93
2023-02-23T01:07:06.902Z,10.90
2023-02-23T01:09:35.062Z,10.91
2023-02-23T01:12:07.679Z,10.87
2023-02-23T01:14:39.068Z,10.87
2023-02-23T01:17:07.681Z,10.88
2023-02-23T01:19:35.944Z,10.86
2023-02-23T01:22:04.126Z,10.87
2023-02-23T01:24:32.230Z,10.87
2023-02-23T01:27:00.173Z,10.85
2023-02-23T01:29:28.665Z,10.83
2023-02-23T01:31:58.594Z,10.83
2023-02-23T01:34:27.048Z,10.84
2023-02-23T01:36:55.430Z,10.80
2023-02-23T01:39:23.527Z,10.80
2023-02-23T01:41:54.374Z,10.82
2023-02-23T01:44:59.862Z,10.79
2023-02-23T01:47:29.967Z,10.75
2023-02-23T01:50:02.313Z,10.75
2023-02-23T01:52:30.446Z,10.77
2023-02-23T01:54:58.770Z,10.78
2023-02-23T01:57:27.436Z,10.78
2023-02-23T01:59:56.247Z,10.78
2023-02-23T02:02:33.448Z,10.80
2023-02-23T02:05:05.612Z,10.78
2023-02-23T02:07:35.594Z,10.77
2023-02-23T02:10:39.532Z,10.77
2023-02-23T02:13:09.784Z,10.74
2023-02-23T02:15:53.818Z,10.75
2023-02-23T02:18:30.716Z,10.75
2023-02-23T02:21:25.387Z,10.77
2023-02-23T02:24:17.442Z,10.78
2023-02-23T02:26:57.350Z,10.79
2023-02-23T02:29:51.963Z,10.82
2023-02-23T02:32:51.699Z,10.87
2023-02-23T02:35:52.269Z,10.86
2023-02-23T02:38:38.966Z,10.86
2023-02-23T02:41:14.289Z,10.88
2023-02-23T02:43:52.215Z,10.87
2023-02-23T02:46:25.038Z,10.88
2023-02-23T02:49:03.843Z,10.86
2023-02-23T02:51:36.832Z,10.85
2023-02-23T02:54:13.523Z,10.84
2023-02-23T02:56:44.723Z,10.86
2023-02-23T02:59:33.782Z,10.88
2023-02-23T03:02:19.605Z,10.89
2023-02-23T03:05:06.800Z,10.89
2023-02-23T03:07:59.231Z,10.90
2023-02-23T03:10:55.684Z,10.93
2023-02-23T03:13:52.000Z,10.94
2023-02-23T03:16:49.434Z,10.95
2023-02-23T03:19:41.694Z,10.93
2023-02-23T03:22:37.346Z,10.94
2023-02-23T03:25:29.359Z,10.98
2023-02-23T03:28:26.300Z,10.95
2023-02-23T03:31:21.417Z,10.94
2023-02-23T03:34:15.000Z,10.95
2023-02-23T03:37:08.943Z,10.92
2023-02-23T03:39:59.791Z,10.90
2023-02-23T03:42:51.905Z,10.86
2023-02-23T03:45:41.980Z,10.83
2023-02-23T03:48:30.975Z,10.82
2023-02-23T03:51:21.204Z,10.80
2023-02-23T03:54:12.296Z,10.83
2023-02-23T03:57:02.954Z,10.81
2023-02-23T03:59:53.017Z,10.80
2023-02-23T04:02:42.466Z,10.80
2023-02-23T04:05:33.964Z,10.82
2023-02-23T04:08:23.288Z,10.82
2023-02-23T04:11:17.980Z,10.83
2023-02-23T04:13:48.619Z,10.87
2023-02-23T04:16:16.116Z,10.91
2023-02-23T04:18:46.194Z,10.96
2023-02-23T04:21:14.415Z,10.97
2023-02-23T04:23:45.215Z,10.99
2023-02-23T04:26:13.665Z,10.96
2023-02-23T04:28:41.779Z,10.94
2023-02-23T04:31:09.973Z,10.94
2023-02-23T04:33:39.445Z,10.97
2023-02-23T04:36:10.147Z,10.98
2023-02-23T04:38:39.011Z,10.98
2023-02-23T04:41:07.253Z,10.94
2023-02-23T04:43:35.379Z,10.91
2023-02-23T04:46:03.437Z,10.88
2023-02-23T04:48:31.548Z,10.85
2023-02-23T04:51:01.018Z,10.83
2023-02-23T04:53:30.509Z,10.79
2023-02-23T04:55:58.541Z,10.79
2023-02-23T04:58:27.140Z,10.72
2023-02-23T05:00:55.224Z,10.70
2023-02-23T05:03:23.776Z,10.68
2023-02-23T05:05:51.741Z,10.68
2023-02-23T05:08:19.802Z,10.68
2023-02-23T05:10:49.369Z,10.66
2023-02-23T05:13:17.355Z,10.66
2023-02-23T05:15:45.491Z,10.67
2023-02-23T05:18:13.538Z,10.64
2023-02-23T05:20:46.771Z,10.67
2023-02-23T05:23:15.118Z,10.65
2023-02-23T05:25:43.223Z,10.65
2023-02-23T05:28:12.667Z,10.67
2023-02-23T05:30:40.805Z,10.68
2023-02-23T05:33:08.846Z,10.67
2023-02-23T05:35:37.033Z,10.69
2023-02-23T05:38:05.851Z,10.70
2023-02-23T05:40:34.379Z,10.72
2023-02-23T05:43:03.434Z,10.70
2023-02-23T05:45:33.336Z,10.71
2023-02-23T05:48:01.834Z,10.71
2023-02-23T05:50:30.049Z,10.69
2023-02-23T05:52:58.149Z,10.66
2023-02-23T05:55:29.676Z,10.66
2023-02-23T05:57:57.683Z,10.69
2023-02-23T06:00:26.242Z,10.72
2023-02-23T06:02:56.655Z,10.71
2023-02-23T06:05:24.816Z,10.73
2023-02-23T06:07:53.437Z,10.74
2023-02-23T06:10:21.784Z,10.76
2023-02-23T06:12:49.785Z,10.78
2023-02-23T06:15:18.762Z,10.80
2023-02-23T06:17:46.799Z,10.82
2023-02-23T06:20:16.344Z,10.81
2023-02-23T06:22:44.823Z,10.83
2023-02-23T06:25:14.042Z,10.83
2023-02-23T06:27:42.724Z,10.82
2023-02-23T06:30:12.207Z,10.83
2023-02-23T06:32:40.531Z,10.86
2023-02-23T06:35:10.058Z,10.88
2023-02-23T06:37:39.593Z,10.87
2023-02-23T06:40:09.092Z,10.87
2023-02-23T06:42:40.890Z,10.88
2023-02-23T06:45:09.724Z,10.89
2023-02-23T06:47:37.757Z,10.87
2023-02-23T06:50:06.989Z,10.86
2023-02-23T06:52:35.201Z,10.82
2023-02-23T06:55:04.894Z,10.82
2023-02-23T06:57:32.951Z,10.82
2023-02-23T07:00:01.841Z,10.81
2023-02-23T07:02:30.138Z,10.80
2023-02-23T07:04:58.868Z,10.80
2023-02-23T07:07:27.434Z,10.79
2023-02-23T07:09:58.115Z,10.80
2023-02-23T07:12:27.980Z,10.82
2023-02-23T07:14:56.129Z,10.81
2023-02-23T07:17:24.409Z,10.81
2023-02-23T07:19:52.702Z,10.81
2023-02-23T07:22:22.315Z,10.83
2023-02-23T07:24:50.513Z,10.85
2023-02-23T07:27:18.484Z,10.85
2023-02-23T07:29:48.560Z,10.86
2023-02-23T07:32:16.846Z,10.90
2023-02-23T07:34:46.026Z,10.93
2023-02-23T07:37:14.719Z,10.94
2023-02-23T07:39:42.735Z,10.98
2023-02-23T07:42:11.561Z,11.01
2023-02-23T07:44:40.292Z,11.04
2023-02-23T07:47:09.749Z,11.06
2023-02-23T07:49:38.086Z,11.09
2023-02-23T07:52:06.316Z,11.12
2023-02-23T07:54:34.955Z,11.13
2023-02-23T07:57:03.094Z,11.17
2023-02-23T07:59:32.209Z,11.19
2023-02-23T08:02:01.215Z,11.21
2023-02-23T08:04:31.516Z,11.26
2023-02-23T08:06:59.572Z,11.33
2023-02-23T08:09:27.547Z,11.38
2023-02-23T08:11:55.652Z,11.40
2023-02-23T08:14:25.085Z,11.48
2023-02-23T08:16:53.181Z,11.54
2023-02-23T08:19:22.978Z,11.64
2023-02-23T08:21:52.520Z,11.69
2023-02-23T08:24:20.641Z,11.72
2023-02-23T08:26:50.459Z,11.72
2023-02-23T08:29:19.027Z,11.70
2023-02-23T08:31:47.315Z,11.71
2023-02-23T08:34:15.893Z,11.72
2023-02-23T08:36:45.908Z,11.71
2023-02-23T08:39:16.859Z,11.70
2023-02-23T08:41:44.905Z,11.72
2023-02-23T08:44:12.856Z,11.78
2023-02-23T08:46:40.967Z,11.83
2023-02-23T08:49:10.877Z,11.88
2023-02-23T08:51:38.835Z,11.89
2023-02-23T08:54:12.831Z,11.89
2023-02-23T08:56:42.662Z,11.89
2023-02-23T08:59:11.459Z,11.94
2023-02-23T09:01:39.683Z,11.92
2023-02-23T09:04:08.080Z,11.94
2023-02-23T09:06:36.509Z,11.93
2023-02-23T09:09:04.990Z,11.99
2023-02-23T09:11:33.118Z,12.02
2023-02-23T09:14:02.734Z,12.05
2023-02-23T09:16:33.953Z,12.09
2023-02-23T09:19:02.326Z,12.13
2023-02-23T09:21:30.866Z,12.13
2023-02-23T09:23:59.142Z,12.09
2023-02-23T09:26:28.847Z,12.10
2023-02-23T09:28:59.248Z,12.14
2023-02-23T09:31:28.998Z,12.14
2023-02-23T09:33:57.287Z,12.23
2023-02-23T09:36:26.658Z,12.36
2023-02-23T09:38:57.768Z,12.44
2023-02-23T09:41:47.244Z,12.57
2023-02-23T09:44:26.819Z,12.65
2023-02-23T09:47:06.622Z,12.70
2023-02-23T09:49:40.151Z,12.74
2023-02-23T09:52:16.953Z,12.77
2023-02-23T09:54:45.864Z,12.79
2023-02-23T09:57:17.871Z,12.81
2023-02-23T09:59:46.939Z,12.87
2023-02-23T10:02:26.747Z,12.86
2023-02-23T10:05:00.755Z,12.84
2023-02-23T10:07:42.518Z,12.86
2023-02-23T10:10:24.278Z,12.85
2023-02-23T10:12:59.248Z,12.87
2023-02-23T10:15:37.372Z,12.94
2023-02-23T10:18:20.714Z,13.02
2023-02-23T10:20:59.472Z,13.07
2023-02-23T10:23:31.516Z,13.18
2023-02-23T10:26:02.744Z,13.22
2023-02-23T10:28:36.190Z,13.30
2023-02-23T10:31:09.050Z,13.37
2023-02-23T10:33:42.959Z,13.42
2023-02-23T10:36:19.386Z,13.43
2023-02-23T10:38:48.023Z,13.48
2023-02-23T10:41:16.252Z,13.46
2023-02-23T10:43:44.272Z,13.49
2023-02-23T10:46:21.696Z,13.48
2023-02-23T10:48:52.833Z,13.54
2023-02-23T10:51:30.190Z,13.62
2023-02-23T10:54:03.041Z,13.62
2023-02-23T10:56:45.631Z,13.67
2023-02-23T10:59:21.068Z,13.73
2023-02-23T11:02:01.387Z,13.81
2023-02-23T11:04:35.055Z,13.85
2023-02-23T11:07:16.411Z,13.83
2023-02-23T11:09:47.730Z,13.85
2023-02-23T11:12:23.083Z,13.86
2023-02-23T11:14:52.795Z,13.83
2023-02-23T11:17:34.205Z,13.83
2023-02-23T11:20:06.881Z,13.87
2023-02-23T11:22:37.603Z,13.94
2023-02-23T11:25:17.232Z,14.04
2023-02-23T11:27:51.700Z,14.14
2023-02-23T11:30:24.685Z,14.27
2023-02-23T11:32:54.386Z,14.45
2023-02-23T11:35:32.957Z,14.57
2023-02-23T11:38:01.341Z,14.74
2023-02-23T11:40:32.388Z,14.85
2023-02-23T11:43:10.104Z,14.92
2023-02-23T11:45:45.915Z,14.98
2023-02-23T11:48:22.224Z,15.00
2023-02-23T11:50:53.277Z,15.02
2023-02-23T11:53:28.651Z,15.02
2023-02-23T11:56:03.742Z,14.98
2023-02-23T11:58:38.875Z,14.92
2023-02-23T12:01:12.335Z,14.85
2023-02-23T12:03:48.008Z,14.75
2023-02-23T12:06:30.642Z,14.65
2023-02-23T12:09:05.693Z,14.55
2023-02-23T12:11:38.892Z,14.39
2023-02-23T12:14:13.866Z,14.26
2023-02-23T12:16:48.275Z,14.18
2023-02-23T12:19:26.598Z,14.11
2023-02-23T12:22:04.630Z,14.04
2023-02-23T12:24:42.318Z,13.98
2023-02-23T12:27:18.060Z,13.93
2023-02-23T12:30:03.722Z,13.94
2023-02-23T12:32:45.652Z,13.88
2023-02-23T12:35:20.036Z,13.84
2023-02-23T12:37:57.989Z,13.81
2023-02-23T12:40:29.592Z,13.77
2023-02-23T12:43:06.713Z,13.76
2023-02-23T12:45:42.186Z,13.78
2023-02-23T12:48:21.212Z,13.81
2023-02-23T12:50:54.356Z,13.81
2023-02-23T12:53:30.033Z,13.79
2023-02-23T12:56:26.398Z,13.74
2023-02-23T12:59:06.865Z,13.69
2023-02-23T13:01:38.580Z,13.67
2023-02-23T13:04:23.805Z,13.65
2023-02-23T13:07:00.727Z,13.62
2023-02-23T13:09:46.855Z,13.68
2023-02-23T13:12:24.667Z,13.69
2023-02-23T13:14:59.729Z,13.78
2023-02-23T13:17:38.425Z,13.83
2023-02-23T13:20:17.520Z,13.80
2023-02-23T13:22:51.943Z,13.81
2023-02-23T13:25:36.096Z,13.84
2023-02-23T13:28:05.349Z,13.93
2023-02-23T13:30:33.838Z,14.00
2023-02-23T13:33:12.639Z,14.03
2023-02-23T13:35:51.175Z,14.06
2023-02-23T13:38:26.201Z,14.09
2023-02-23T13:41:05.275Z,14.01
2023-02-23T13:43:40.149Z,13.97
2023-02-23T13:46:31.680Z,13.90
2023-02-23T13:49:04.580Z,13.82
2023-02-23T13:51:38.879Z,13.88
2023-02-23T13:54:23.218Z,13.94
2023-02-23T13:56:56.831Z,13.98
2023-02-23T13:59:32.437Z,14.11
2023-02-23T14:02:03.961Z,14.22
2023-02-23T14:04:38.368Z,14.43
2023-02-23T14:07:22.748Z,14.63
2023-02-23T14:09:56.014Z,14.81
2023-02-23T14:12:33.659Z,14.91
2023-02-23T14:15:30.898Z,14.93
2023-02-23T14:18:00.126Z,14.97
2023-02-23T14:20:45.673Z,15.03
2023-02-23T14:23:18.577Z,15.01
2023-02-23T14:25:57.332Z,14.90
2023-02-23T14:28:35.058Z,15.07
2023-02-23T14:31:09.884Z,15.04
2023-02-23T14:33:52.371Z,14.67
2023-02-23T14:36:45.797Z,15.30
2023-02-23T14:39:23.719Z,15.76
2023-02-23T14:41:55.345Z,16.16
2023-02-23T14:44:30.922Z,16.35
2023-02-23T14:47:04.494Z,16.90
2023-02-23T14:49:37.049Z,17.30
2023-02-23T14:52:11.065Z,17.68
2023-02-23T14:54:40.860Z,17.68
2023-02-23T14:57:19.044Z,17.40
2023-02-23T14:59:55.940Z,17.01
2023-02-23T15:02:26.543Z,16.64
2023-02-23T15:04:55.197Z,16.37
2023-02-23T15:07:32.377Z,16.06
2023-02-23T15:10:02.518Z,16.22
2023-02-23T15:12:36.339Z,16.68
2023-02-23T15:15:14.359Z,17.06
2023-02-23T15:17:48.057Z,17.31
2023-02-23T15:20:18.974Z,17.65
2023-02-23T15:22:50.034Z,18.19
2023-02-23T15:25:21.065Z,19.01
2023-02-23T15:27:51.768Z,19.97
2023-02-23T15:30:27.733Z,20.47
2023-02-23T15:33:04.134Z,20.32
2023-02-23T15:35:38.039Z,19.93
2023-02-23T15:38:17.990Z,19.30
2023-02-23T15:40:56.919Z,18.72
2023-02-23T15:43:25.389Z,18.28
2023-02-23T15:45:56.207Z,17.89
2023-02-23T15:48:27.686Z,17.53
2023-02-23T15:50:57.864Z,17.24
2023-02-23T15:53:30.886Z,17.02
2023-02-23T15:56:05.405Z,16.72
2023-02-23T15:58:44.562Z,16.60
2023-02-23T16:01:24.946Z,16.57
2023-02-23T16:04:01.310Z,16.55
2023-02-23T16:06:34.317Z,16.63
2023-02-23T16:09:05.938Z,16.79
2023-02-23T16:11:36.553Z,17.04
2023-02-23T16:14:07.040Z,17.36
2023-02-23T16:16:37.169Z,17.72
2023-02-23T16:19:05.960Z,17.93
2023-02-23T16:21:34.848Z,17.88
2023-02-23T16:24:10.418Z,17.69
2023-02-23T16:26:47.350Z,17.46
2023-02-23T16:29:19.537Z,17.14
2023-02-23T16:31:51.716Z,16.94
2023-02-23T16:34:22.736Z,16.73
2023-02-23T16:36:53.824Z,16.54
2023-02-23T16:39:25.404Z,16.39
2023-02-23T16:41:53.453Z,16.27
2023-02-23T16:44:26.293Z,16.15
2023-02-23T16:47:12.399Z,16.05
2023-02-23T16:49:40.568Z,16.02
2023-02-23T16:52:19.125Z,16.04
2023-02-23T16:54:52.625Z,16.00
2023-02-23T16:57:25.652Z,15.93
2023-02-23T16:59:55.842Z,15.95
2023-02-23T17:02:25.441Z,15.95
2023-02-23T17:04:59.093Z,15.95
2023-02-23T17:07:27.608Z,16.10
2023-02-23T17:09:56.129Z,16.15
2023-02-23T17:12:24.447Z,16.07
2023-02-23T17:14:52.522Z,15.91
2023-02-23T17:17:21.822Z,15.70
2023-02-23T17:19:51.495Z,15.53
2023-02-23T17:22:21.011Z,15.37
2023-02-23T17:24:49.145Z,15.29
2023-02-23T17:27:17.173Z,15.18
2023-02-23T17:29:45.271Z,15.01
2023-02-23T17:32:13.611Z,14.88
2023-02-23T17:34:41.925Z,14.84
2023-02-23T17:37:11.789Z,14.84
2023-02-23T17:39:41.048Z,14.75
2023-02-23T17:42:09.773Z,14.59
2023-02-23T17:44:39.418Z,14.34
2023-02-23T17:47:07.425Z,14.11
2023-02-23T17:49:35.597Z,13.85
2023-02-23T17:52:04.265Z,13.59
2023-02-23T17:54:33.920Z,13.32
2023-02-23T17:57:02.130Z,13.07
2023-02-23T17:59:30.294Z,12.84
2023-02-23T18:02:00.238Z,12.63
2023-02-23T18:04:29.001Z,12.41
2023-02-23T18:06:57.816Z,12.24
2023-02-23T18:09:26.401Z,12.06
2023-02-23T18:11:57.944Z,11.91
2023-02-23T18:14:26.271Z,11.77
2023-02-23T18:16:54.431Z,11.62
2023-02-23T18:19:22.914Z,11.50
2023-02-23T18:21:51.099Z,11.38
2023-02-23T18:24:19.325Z,11.27
2023-02-23T18:26:47.484Z,11.14
2023-02-23T18:29:18.857Z,11.04
2023-02-23T18:31:48.203Z,10.93
2023-02-23T18:34:16.405Z,10.85
2023-02-23T18:36:44.872Z,10.76
2023-02-23T18:39:13.677Z,10.69
2023-02-23T18:41:45.497Z,10.62
2023-02-23T18:44:17.052Z,10.52
2023-02-23T18:46:47.432Z,10.47
2023-02-23T18:49:16.658Z,10.42
2023-02-23T18:51:45.068Z,10.36
2023-02-23T18:54:16.911Z,10.29
2023-02-23T18:56:45.494Z,10.22
2023-02-23T19:05:24.862Z,10.08
2023-02-23T19:07:54.997Z,10.05
2023-02-23T19:10:23.939Z,10.00
2023-02-23T19:13:06.884Z,9.94
2023-02-23T19:15:39.152Z,9.85
2023-02-23T19:18:08.442Z,9.79
2023-02-23T19:20:36.860Z,9.75
2023-02-23T19:23:06.191Z,9.70
2023-02-23T19:25:34.428Z,9.64
2023-02-23T19:31:09.489Z,9.55
2023-02-23T19:33:40.051Z,9.53
2023-02-23T19:36:11.098Z,9.50
2023-02-23T19:38:39.769Z,9.50
2023-02-23T19:41:08.597Z,9.48
2023-02-23T19:43:36.901Z,9.42
2023-02-23T19:46:08.681Z,9.41
2023-02-23T19:48:38.194Z,9.36
2023-02-23T19:51:10.286Z,9.31
2023-02-23T19:53:42.003Z,9.28
2023-02-23T19:56:15.230Z,9.24
2023-02-23T19:58:47.056Z,9.20
2023-02-23T20:01:37.791Z,9.13
2023-02-23T20:04:08.388Z,9.10
2023-02-23T20:06:44.939Z,9.09
2023-02-23T20:09:13.230Z,9.05
2023-02-23T20:11:42.875Z,9.03
2023-02-23T20:14:13.450Z,8.99
2023-02-23T20:16:43.030Z,8.95
2023-02-23T20:19:13.294Z,8.89
2023-02-23T20:21:42.244Z,8.86
2023-02-23T20:24:12.891Z,8.82
2023-02-23T20:26:40.924Z,8.81
2023-02-23T20:29:13.629Z,8.76
2023-02-23T20:31:50.815Z,8.71
2023-02-23T20:34:22.818Z,8.65
2023-02-23T20:36:52.228Z,8.62
2023-02-23T20:39:20.917Z,8.54
2023-02-23T20:41:53.650Z,8.49
2023-02-23T20:44:23.862Z,8.41
2023-02-23T20:46:53.453Z,8.36
2023-02-23T20:49:22.951Z,8.34
2023-02-23T20:51:51.151Z,8.31
2023-02-23T20:54:21.955Z,8.28
2023-02-23T20:56:58.927Z,8.25
2023-02-23T20:59:31.086Z,8.24
2023-02-23T21:02:14.181Z,8.21
2023-02-23T21:05:00.765Z,8.19
2023-02-23T21:07:33.241Z,8.17
2023-02-23T21:10:02.376Z,8.16
2023-02-23T21:12:37.108Z,8.16
2023-02-23T21:15:14.737Z,8.17
2023-02-23T21:17:48.749Z,8.17
2023-02-23T21:20:22.409Z,8.16
2023-02-23T21:22:52.860Z,8.14
2023-02-23T21:25:24.790Z,8.09
2023-02-23T21:27:59.153Z,8.05
2023-02-23T21:30:30.257Z,7.97
2023-02-23T21:33:04.138Z,7.87
2023-02-23T21:35:34.492Z,7.84
2023-02-23T21:38:06.349Z,7.77
2023-02-23T21:40:42.330Z,7.70
2023-02-23T21:43:16.782Z,7.67
2023-02-23T21:45:47.361Z,7.57
2023-02-23T21:48:16.961Z,7.53
2023-02-23T21:50:49.157Z,7.47
2023-02-23T21:53:20.802Z,7.40
2023-02-23T21:55:53.590Z,7.34
2023-02-23T21:58:31.550Z,7.27
2023-02-23T22:01:00.864Z,7.22
2023-02-23T22:03:39.455Z,7.17
2023-02-23T22:06:13.080Z,7.10
2023-02-23T22:08:55.033Z,7.06
2023-02-23T22:11:37.422Z,7.03
2023-02-23T22:14:12.932Z,6.95
2023-02-23T22:16:48.643Z,6.89
2023-02-23T22:19:24.468Z,6.85
2023-02-23T22:22:00.801Z,6.81
2023-02-23T22:24:29.651Z,6.76
2023-02-23T22:27:00.485Z,6.71
2023-02-23T22:29:28.650Z,6.67
2023-02-23T22:31:57.482Z,6.61
2023-02-23T22:34:34.588Z,6.57
2023-02-23T22:37:03.322Z,6.57
2023-02-23T22:39:36.274Z,6.58
2023-02-23T22:45:13.148Z,6.48
2023-02-23T22:47:46.296Z,6.47
2023-02-23T22:50:29.285Z,6.45
2023-02-23T22:53:03.002Z,6.47
2023-02-23T22:55:35.774Z,6.43
2023-02-23T22:58:08.576Z,6.43
2023-02-23T23:00:37.403Z,6.39
2023-02-23T23:03:06.538Z,6.36
2023-02-23T23:05:37.563Z,6.34
2023-02-23T23:08:06.805Z,6.32
2023-02-23T23:10:36.702Z,6.28
2023-02-23T23:13:08.545Z,6.27
2023-02-23T23:15:39.661Z,6.26
2023-02-23T23:18:16.248Z,6.27
2023-02-23T23:20:45.865Z,6.26
2023-02-23T23:23:15.551Z,6.25
2023-02-23T23:25:47.709Z,6.23
2023-02-23T23:28:16.976Z,6.24
2023-02-23T23:30:46.327Z,6.21
2023-02-23T23:33:15.135Z,6.21
2023-02-23T23:35:43.646Z,6.20
2023-02-23T23:38:14.591Z,6.20
2023-02-23T23:40:47.425Z,6.19
2023-02-23T23:43:15.746Z,6.20
2023-02-23T23:45:54.278Z,6.21
2023-02-23T23:48:22.358Z,6.21
2023-02-23T23:50:51.391Z,6.21
2023-02-23T23:53:22.291Z,6.21
2023-02-23T23:55:50.639Z,6.22
2023-02-23T23:58:19.881Z,6.18
